Buoy 53593

sailwx.info

Track history (hours):
 
Tides and Currents Weather Stations Pressure Air Temp Water Temp Dewpoint Dewpoint Depression Visibility Wind Speed Wind Dir Waves Ship Positions

Drifting buoy 53593

Last reported at 2017-Aug-17 15:00 UTC. Time now 2017-Aug-17 23:22 UTC.
Position S 24°29' E 089°11'.

Barometer 1027.3 mb
Water temperature 20.2 ° C

Date/timePositionNaut miles runAvg speedWind from/ knotsBaromVisibWave heightAir tempDewpointWater temp
2017-Aug-17 15:00S 24°29' E 089°11'0 0.0 1027.3 20.2
2017-Aug-17 14:00S 24°29' E 089°11'1 1.1 1027.2 20.1
2017-Aug-17 13:00S 24°29' E 089°13'1 0.6 1026.6 20.1
2017-Aug-17 11:00S 24°28' E 089°14'1 0.6 1025.4 20.1
2017-Aug-17 09:00S 24°28' E 089°15'1 0.1 1025.1 20.2
2017-Aug-17 03:00S 24°27' E 089°16'1 0.8 1027.2 20.1
2017-Aug-17 02:00S 24°28' E 089°16'0 0.0 1026.9 20.1
2017-Aug-17 01:00S 24°28' E 089°16'0 0.0 1026.4 20.1
2017-Aug-17 00:00S 24°28' E 089°16'2 1.1 1026.1 20.1
2017-Aug-16 22:00S 24°28' E 089°19'0 0.0 1025.3 20.1
2017-Aug-16 21:00S 24°28' E 089°19'1 0.5 1025.5 20.1
2017-Aug-16 20:00S 24°28' E 089°18'2 0.8 1025.6 20.1
2017-Aug-16 18:00S 24°27' E 089°19'1 0.4 1026.0 20.1
2017-Aug-16 16:00S 24°26' E 089°20'0 0.0 1026.2 20.1
2017-Aug-16 15:00S 24°26' E 089°20'1 0.5 1026.5 20.1
2017-Aug-16 14:00S 24°26' E 089°20'1 0.6 1026.5 20.2
2017-Aug-16 12:00S 24°25' E 089°20'1 0.3 1025.6 20.2
2017-Aug-16 10:00S 24°25' E 089°20'1 0.7 1025.3 20.2
2017-Aug-16 08:00S 24°23' E 089°20'1 0.1 1025.2 20.2
2017-Aug-16 03:00S 24°23' E 089°20'1 0.6 1027.4 20.1
2017-Aug-16 02:00S 24°23' E 089°20'0 0.0 1026.9 20.1
2017-Aug-16 01:00S 24°23' E 089°20'1 0.5 1026.1 20.1
2017-Aug-16 00:00S 24°23' E 089°21'1 0.6 1025.5 20.1
2017-Aug-15 23:00S 24°22' E 089°21'1 0.1 1025.2 20.1
2017-Aug-15 16:00S 24°22' E 089°20'1 0.8 1026.7 20.2
2017-Aug-15 15:00S 24°23' E 089°20'0 0.0 1026.9 20.2
2017-Aug-15 13:00S 24°23' E 089°20'1 1.2 1026.3 20.2
2017-Aug-15 12:00S 24°23' E 089°21'0 0.0 1025.7 20.1
2017-Aug-15 11:00S 24°23' E 089°21'1 0.6 1025.5 20.2
2017-Aug-15 10:00S 24°23' E 089°21'0 0.0 1025.3 20.2
2017-Aug-15 09:00S 24°23' E 089°21'0 0.0 1025.2 20.2
2017-Aug-15 08:00S 24°23' E 089°21'2 0.4 1025.0 20.3
2017-Aug-15 03:00S 24°22' E 089°19'0 0.0 1026.6 20.2
2017-Aug-15 00:00S 24°22' E 089°19'0 0.0 1025.6 20.2
2017-Aug-14 23:00S 24°22' E 089°19'1 0.4 1024.9 20.2
2017-Aug-14 20:00S 24°22' E 089°20'2 0.4 1024.8 20.2
2017-Aug-14 16:00S 24°22' E 089°22'1 0.6 1025.2 20.3
2017-Aug-14 15:00S 24°22' E 089°22'1 0.5 1025.2 20.3
2017-Aug-14 14:00S 24°22' E 089°22'1 1.2 1025.1 20.3
2017-Aug-14 13:00S 24°23' E 089°22'0 0.0 1024.3 20.3
2017-Aug-14 12:00S 24°23' E 089°22'1 0.4 1023.7 20.3
2017-Aug-14 10:00S 24°24' E 089°21'1 0.8 1023.0 20.3
2017-Aug-14 09:00S 24°25' E 089°22'2 0.5 1022.8 20.3
2017-Aug-14 04:00S 24°23' E 089°23'1 0.6 1023.5 20.3
2017-Aug-14 03:00S 24°22' E 089°23'0 0.0 1023.3 20.3
2017-Aug-14 01:00S 24°22' E 089°23'1 0.6 1021.8 20.2
2017-Aug-14 00:00S 24°23' E 089°23'1 0.4 1021.3 20.2
2017-Aug-13 21:00S 24°22' E 089°23'0 0.0 1020.2 20.2
2017-Aug-13 20:00S 24°22' E 089°23'1 0.5 1020.2 20.2
2017-Aug-13 19:00S 24°22' E 089°23'1 0.5 1020.1 20.2
2017-Aug-13 17:00S 24°22' E 089°25'0 0.0 1019.6 20.4
2017-Aug-13 16:00S 24°22' E 089°25'1 1.2 1019.5 20.3
2017-Aug-13 15:00S 24°21' E 089°26'0 0.0 1019.1 20.3
2017-Aug-13 13:00S 24°21' E 089°26'1 0.8 1018.0 20.3
2017-Aug-13 12:00S 24°20' E 089°25'1 0.6 1017.3 20.4
2017-Aug-13 11:00S 24°21' E 089°25'0 0.0 1016.9 20.4
2017-Aug-13 10:00S 24°21' E 089°25'1 0.5 1016.7 20.4
2017-Aug-13 09:00S 24°21' E 089°25'2 0.5 1016.3 20.4
2017-Aug-13 04:00S 24°22' E 089°22'0 0.0 1017.9 20.3
2017-Aug-13 03:00S 24°22' E 089°22'1 0.7 1017.6 20.2
2017-Aug-13 01:00S 24°23' E 089°22'1 0.5 1016.4 20.2
2017-Aug-13 00:00S 24°23' E 089°22'1 0.5 1015.6 20.2
2017-Aug-12 23:00S 24°23' E 089°22'0 0.0 1015.2 20.2
2017-Aug-12 22:00S 24°23' E 089°22'1 0.6 1015.2 20.2
2017-Aug-12 21:00S 24°23' E 089°22'0 0.0 1015.4 20.2
2017-Aug-12 20:00S 24°23' E 089°22'1 0.2 1015.6 20.2
2017-Aug-12 16:00S 24°22' E 089°21'0 0.0 1016.6 20.2
2017-Aug-12 15:00S 24°22' E 089°21'1 0.5 1016.6 20.2
2017-Aug-12 14:00S 24°22' E 089°22'1 0.6 1016.5 20.2
2017-Aug-12 13:00S 24°23' E 089°22'1 1.2 1016.1 20.3
2017-Aug-12 12:00S 24°23' E 089°23'0 0.0 1015.7 20.3
2017-Aug-12 11:00S 24°23' E 089°23'1 0.8 1015.2 20.4
2017-Aug-12 10:00S 24°23' E 089°22'1 0.8 1015.2 20.4
2017-Aug-12 09:00S 24°23' E 089°23'3 0.5 1015.2 20.4
2017-Aug-12 03:00S 24°23' E 089°19'1 0.8 1017.9 20.2
2017-Aug-12 02:00S 24°24' E 089°20'0 0.0 1017.6 20.2
2017-Aug-12 01:00S 24°24' E 089°20'1 0.6 1017.3 20.2
2017-Aug-12 00:00S 24°25' E 089°20'1 0.3 1016.9 20.2
2017-Aug-11 22:00S 24°25' E 089°19'1 0.6 1016.7 20.3
2017-Aug-11 21:00S 24°24' E 089°19'3 0.7 1017.3 20.3
2017-Aug-11 16:00S 24°23' E 089°16'0 0.0 1018.7 20.3
2017-Aug-11 15:00S 24°23' E 089°16'0 0.0 1018.8 20.3
2017-Aug-11 14:00S 24°23' E 089°16'1 1.2 1018.5 20.3
2017-Aug-11 13:00S 24°24' E 089°14'1 1.1 1018.0 20.3
2017-Aug-11 12:00S 24°24' E 089°16'1 1.2 1017.7 20.4
2017-Aug-11 11:00S 24°25' E 089°17'1 0.8 1017.2 20.4
2017-Aug-11 10:00S 24°25' E 089°17'0 0.0 1016.8 20.4
2017-Aug-11 09:00S 24°25' E 089°17'0 0.0 1016.4 20.4
2017-Aug-11 08:00S 24°25' E 089°17'1 0.1 1016.7 20.4
2017-Aug-11 03:00S 24°26' E 089°17'1 0.5 1017.8 20.4
2017-Aug-11 02:00S 24°26' E 089°17'1 0.8 1017.1 20.4
2017-Aug-11 01:00S 24°26' E 089°16'1 1.2 1016.7 20.4
2017-Aug-11 00:00S 24°27' E 089°15'0 0.0 1016.1 20.4
2017-Aug-10 23:00S 24°27' E 089°15'0 0.0 1015.7 20.4
2017-Aug-10 22:00S 24°27' E 089°15'1 0.8 1015.4 20.4
2017-Aug-10 21:00S 24°28' E 089°14'2 0.4 1015.3 20.4
2017-Aug-10 16:00S 24°29' E 089°14'1 0.5 1015.9 20.4
2017-Aug-10 15:00S 24°29' E 089°14'1 0.8 1016.0 20.4
2017-Aug-10 14:00S 24°29' E 089°14'1 0.5 1016.0 20.4
2017-Aug-10 13:00S 24°29' E 089°13'1 0.8 1015.5 20.4
2017-Aug-10 12:00S 24°28' E 089°13'1 1.3 1015.5 20.4
2017-Aug-10 11:00S 24°29' E 089°13'0 0.0 1015.4 20.4
2017-Aug-10 10:00S 24°29' E 089°13'2 2.1 1015.4 20.5
2017-Aug-10 09:00S 24°31' E 089°14'0 0.0 1015.7 20.6
2017-Aug-10 04:00S 24°31' E 089°14'1 1.2 1018.7 20.4
2017-Aug-10 03:00S 24°32' E 089°16'1 0.5 1018.9 20.3
2017-Aug-10 01:00S 24°32' E 089°14'0 0.0 1019.1 20.3
2017-Aug-10 00:00S 24°32' E 089°14'0 0.0 1018.7 20.3
2017-Aug-09 23:00S 24°32' E 089°14'1 0.5 1018.5 20.3
2017-Aug-09 22:00S 24°32' E 089°14'1 0.8 1018.5 20.3
2017-Aug-09 21:00S 24°32' E 089°13'1 0.1 1019.2 20.3
2017-Aug-09 16:00S 24°33' E 089°13'1 0.5 1022.9 20.3
2017-Aug-09 15:00S 24°33' E 089°13'0 0.0 1022.9 20.3
2017-Aug-09 14:00S 24°33' E 089°13'1 0.8 1022.9 20.3
2017-Aug-09 13:00S 24°32' E 089°13'0 0.0 1022.5 20.4
2017-Aug-09 12:00S 24°32' E 089°13'1 0.8 1022.4 20.4
2017-Aug-09 11:00S 24°33' E 089°13'3 1.4 1022.3 20.4
2017-Aug-09 09:00S 24°32' E 089°16'0 0.0 1022.6 20.4
2017-Aug-09 08:00S 24°32' E 089°16'0 0.0 1023.2 20.4
2017-Aug-09 04:00S 24°32' E 089°16'1 1.3 1025.6 20.3
2017-Aug-09 03:00S 24°34' E 089°16'1 0.5 1025.6 20.3
2017-Aug-09 02:00S 24°34' E 089°16'0 0.0 1025.5 20.2
2017-Aug-09 01:00S 24°34' E 089°16'1 0.6 1024.9 20.2
2017-Aug-09 00:00S 24°34' E 089°16'0 0.0 1024.2 20.2
2017-Aug-08 23:00S 24°34' E 089°16'1 0.5 1023.8 20.2
2017-Aug-08 21:00S 24°34' E 089°14'0 0.0 1024.5 20.3
2017-Aug-08 17:00S 24°34' E 089°14'1 0.6 1026.2 20.4
2017-Aug-08 16:00S 24°34' E 089°14'0 0.0 1026.2 20.4
2017-Aug-08 15:00S 24°34' E 089°14'1 0.7 1026.3 20.4
2017-Aug-08 13:00S 24°35' E 089°14'0 0.0 1026.0 20.3
2017-Aug-08 12:00S 24°35' E 089°14'2 1.6 1025.5 20.3
2017-Aug-08 11:00S 24°34' E 089°15'2 0.8 1025.1 20.4
2017-Aug-08 09:00S 24°35' E 089°14'0 0.0 1024.4 20.4
2017-Aug-08 08:00S 24°35' E 089°14'0 0.0 1024.3 20.4
2017-Aug-08 04:00S 24°35' E 089°14'1 0.5 1025.7 20.3
2017-Aug-08 03:00S 24°35' E 089°14'1 0.5 1025.6 20.3
2017-Aug-08 02:00S 24°35' E 089°14'1 1.2 1025.3 20.4
2017-Aug-08 01:00S 24°35' E 089°15'2 1.7 1024.3 20.4
2017-Aug-08 00:00S 24°35' E 089°17'0 0.0 1023.7 20.4
2017-Aug-07 23:00S 24°35' E 089°17'0 0.0 1023.7 20.4
2017-Aug-07 21:00S 24°35' E 089°17'1 0.8 1023.5 20.4
2017-Aug-07 20:00S 24°35' E 089°16'1 0.1 1023.3 20.5
2017-Aug-07 16:00S 24°35' E 089°16'0 0.0 1023.2 20.5
2017-Aug-07 15:00S 24°35' E 089°16'   1022.9 20.5
Track history (hours):
 
Tides and Currents Weather Stations Pressure Air Temp Water Temp Dewpoint Dewpoint Depression Visibility Wind Speed Wind Dir Waves Ship Positions

Drifting buoy 53593

Last reported at 2017-Aug-17 15:00 UTC. Time now 2017-Aug-17 23:22 UTC.
Position S 24°29' E 089°11'.

Barometer 1027.3 mb
Water temperature 20.2 ° C

Date/timePositionNaut miles runAvg speedWind from/ knotsBaromVisibWave heightAir tempDewpointWater temp
2017-Aug-17 15:00S 24°29' E 089°11'0 0.0 1027.3 20.2
2017-Aug-17 14:00S 24°29' E 089°11'1 1.1 1027.2 20.1
2017-Aug-17 13:00S 24°29' E 089°13'1 0.6 1026.6 20.1
2017-Aug-17 11:00S 24°28' E 089°14'1 0.6 1025.4 20.1
2017-Aug-17 09:00S 24°28' E 089°15'1 0.1 1025.1 20.2
2017-Aug-17 03:00S 24°27' E 089°16'1 0.8 1027.2 20.1
2017-Aug-17 02:00S 24°28' E 089°16'0 0.0 1026.9 20.1
2017-Aug-17 01:00S 24°28' E 089°16'0 0.0 1026.4 20.1
2017-Aug-17 00:00S 24°28' E 089°16'2 1.1 1026.1 20.1
2017-Aug-16 22:00S 24°28' E 089°19'0 0.0 1025.3 20.1
2017-Aug-16 21:00S 24°28' E 089°19'1 0.5 1025.5 20.1
2017-Aug-16 20:00S 24°28' E 089°18'2 0.8 1025.6 20.1
2017-Aug-16 18:00S 24°27' E 089°19'1 0.4 1026.0 20.1
2017-Aug-16 16:00S 24°26' E 089°20'0 0.0 1026.2 20.1
2017-Aug-16 15:00S 24°26' E 089°20'1 0.5 1026.5 20.1
2017-Aug-16 14:00S 24°26' E 089°20'1 0.6 1026.5 20.2
2017-Aug-16 12:00S 24°25' E 089°20'1 0.3 1025.6 20.2
2017-Aug-16 10:00S 24°25' E 089°20'1 0.7 1025.3 20.2
2017-Aug-16 08:00S 24°23' E 089°20'1 0.1 1025.2 20.2
2017-Aug-16 03:00S 24°23' E 089°20'1 0.6 1027.4 20.1
2017-Aug-16 02:00S 24°23' E 089°20'0 0.0 1026.9 20.1
2017-Aug-16 01:00S 24°23' E 089°20'1 0.5 1026.1 20.1
2017-Aug-16 00:00S 24°23' E 089°21'1 0.6 1025.5 20.1
2017-Aug-15 23:00S 24°22' E 089°21'1 0.1 1025.2 20.1
2017-Aug-15 16:00S 24°22' E 089°20'1 0.8 1026.7 20.2
2017-Aug-15 15:00S 24°23' E 089°20'0 0.0 1026.9 20.2
2017-Aug-15 13:00S 24°23' E 089°20'1 1.2 1026.3 20.2
2017-Aug-15 12:00S 24°23' E 089°21'0 0.0 1025.7 20.1
2017-Aug-15 11:00S 24°23' E 089°21'1 0.6 1025.5 20.2
2017-Aug-15 10:00S 24°23' E 089°21'0 0.0 1025.3 20.2
2017-Aug-15 09:00S 24°23' E 089°21'0 0.0 1025.2 20.2
2017-Aug-15 08:00S 24°23' E 089°21'2 0.4 1025.0 20.3
2017-Aug-15 03:00S 24°22' E 089°19'0 0.0 1026.6 20.2
2017-Aug-15 00:00S 24°22' E 089°19'0 0.0 1025.6 20.2
2017-Aug-14 23:00S 24°22' E 089°19'1 0.4 1024.9 20.2
2017-Aug-14 20:00S 24°22' E 089°20'2 0.4 1024.8 20.2
2017-Aug-14 16:00S 24°22' E 089°22'1 0.6 1025.2 20.3
2017-Aug-14 15:00S 24°22' E 089°22'1 0.5 1025.2 20.3
2017-Aug-14 14:00S 24°22' E 089°22'1 1.2 1025.1 20.3
2017-Aug-14 13:00S 24°23' E 089°22'0 0.0 1024.3 20.3
2017-Aug-14 12:00S 24°23' E 089°22'1 0.4 1023.7 20.3
2017-Aug-14 10:00S 24°24' E 089°21'1 0.8 1023.0 20.3
2017-Aug-14 09:00S 24°25' E 089°22'2 0.5 1022.8 20.3
2017-Aug-14 04:00S 24°23' E 089°23'1 0.6 1023.5 20.3
2017-Aug-14 03:00S 24°22' E 089°23'0 0.0 1023.3 20.3
2017-Aug-14 01:00S 24°22' E 089°23'1 0.6 1021.8 20.2
2017-Aug-14 00:00S 24°23' E 089°23'1 0.4 1021.3 20.2
2017-Aug-13 21:00S 24°22' E 089°23'0 0.0 1020.2 20.2
2017-Aug-13 20:00S 24°22' E 089°23'1 0.5 1020.2 20.2
2017-Aug-13 19:00S 24°22' E 089°23'1 0.5 1020.1 20.2
2017-Aug-13 17:00S 24°22' E 089°25'0 0.0 1019.6 20.4
2017-Aug-13 16:00S 24°22' E 089°25'1 1.2 1019.5 20.3
2017-Aug-13 15:00S 24°21' E 089°26'0 0.0 1019.1 20.3
2017-Aug-13 13:00S 24°21' E 089°26'1 0.8 1018.0 20.3
2017-Aug-13 12:00S 24°20' E 089°25'1 0.6 1017.3 20.4
2017-Aug-13 11:00S 24°21' E 089°25'0 0.0 1016.9 20.4
2017-Aug-13 10:00S 24°21' E 089°25'1 0.5 1016.7 20.4
2017-Aug-13 09:00S 24°21' E 089°25'2 0.5 1016.3 20.4
2017-Aug-13 04:00S 24°22' E 089°22'0 0.0 1017.9 20.3
2017-Aug-13 03:00S 24°22' E 089°22'1 0.7 1017.6 20.2
2017-Aug-13 01:00S 24°23' E 089°22'1 0.5 1016.4 20.2
2017-Aug-13 00:00S 24°23' E 089°22'1 0.5 1015.6 20.2
2017-Aug-12 23:00S 24°23' E 089°22'0 0.0 1015.2 20.2
2017-Aug-12 22:00S 24°23' E 089°22'1 0.6 1015.2 20.2
2017-Aug-12 21:00S 24°23' E 089°22'0 0.0 1015.4 20.2
2017-Aug-12 20:00S 24°23' E 089°22'1 0.2 1015.6 20.2
2017-Aug-12 16:00S 24°22' E 089°21'0 0.0 1016.6 20.2
2017-Aug-12 15:00S 24°22' E 089°21'1 0.5 1016.6 20.2
2017-Aug-12 14:00S 24°22' E 089°22'1 0.6 1016.5 20.2
2017-Aug-12 13:00S 24°23' E 089°22'1 1.2 1016.1 20.3
2017-Aug-12 12:00S 24°23' E 089°23'0 0.0 1015.7 20.3
2017-Aug-12 11:00S 24°23' E 089°23'1 0.8 1015.2 20.4
2017-Aug-12 10:00S 24°23' E 089°22'1 0.8 1015.2 20.4
2017-Aug-12 09:00S 24°23' E 089°23'3 0.5 1015.2 20.4
2017-Aug-12 03:00S 24°23' E 089°19'1 0.8 1017.9 20.2
2017-Aug-12 02:00S 24°24' E 089°20'0 0.0 1017.6 20.2
2017-Aug-12 01:00S 24°24' E 089°20'1 0.6 1017.3 20.2
2017-Aug-12 00:00S 24°25' E 089°20'1 0.3 1016.9 20.2
2017-Aug-11 22:00S 24°25' E 089°19'1 0.6 1016.7 20.3
2017-Aug-11 21:00S 24°24' E 089°19'3 0.7 1017.3 20.3
2017-Aug-11 16:00S 24°23' E 089°16'0 0.0 1018.7 20.3
2017-Aug-11 15:00S 24°23' E 089°16'0 0.0 1018.8 20.3
2017-Aug-11 14:00S 24°23' E 089°16'1 1.2 1018.5 20.3
2017-Aug-11 13:00S 24°24' E 089°14'1 1.1 1018.0 20.3
2017-Aug-11 12:00S 24°24' E 089°16'1 1.2 1017.7 20.4
2017-Aug-11 11:00S 24°25' E 089°17'1 0.8 1017.2 20.4
2017-Aug-11 10:00S 24°25' E 089°17'0 0.0 1016.8 20.4
2017-Aug-11 09:00S 24°25' E 089°17'0 0.0 1016.4 20.4
2017-Aug-11 08:00S 24°25' E 089°17'1 0.1 1016.7 20.4
2017-Aug-11 03:00S 24°26' E 089°17'1 0.5 1017.8 20.4
2017-Aug-11 02:00S 24°26' E 089°17'1 0.8 1017.1 20.4
2017-Aug-11 01:00S 24°26' E 089°16'1 1.2 1016.7 20.4
2017-Aug-11 00:00S 24°27' E 089°15'0 0.0 1016.1 20.4
2017-Aug-10 23:00S 24°27' E 089°15'0 0.0 1015.7 20.4
2017-Aug-10 22:00S 24°27' E 089°15'1 0.8 1015.4 20.4
2017-Aug-10 21:00S 24°28' E 089°14'2 0.4 1015.3 20.4
2017-Aug-10 16:00S 24°29' E 089°14'1 0.5 1015.9 20.4
2017-Aug-10 15:00S 24°29' E 089°14'1 0.8 1016.0 20.4
2017-Aug-10 14:00S 24°29' E 089°14'1 0.5 1016.0 20.4
2017-Aug-10 13:00S 24°29' E 089°13'1 0.8 1015.5 20.4
2017-Aug-10 12:00S 24°28' E 089°13'1 1.3 1015.5 20.4
2017-Aug-10 11:00S 24°29' E 089°13'0 0.0 1015.4 20.4
2017-Aug-10 10:00S 24°29' E 089°13'2 2.1 1015.4 20.5
2017-Aug-10 09:00S 24°31' E 089°14'0 0.0 1015.7 20.6
2017-Aug-10 04:00S 24°31' E 089°14'1 1.2 1018.7 20.4
2017-Aug-10 03:00S 24°32' E 089°16'1 0.5 1018.9 20.3
2017-Aug-10 01:00S 24°32' E 089°14'0 0.0 1019.1 20.3
2017-Aug-10 00:00S 24°32' E 089°14'0 0.0 1018.7 20.3
2017-Aug-09 23:00S 24°32' E 089°14'1 0.5 1018.5 20.3
2017-Aug-09 22:00S 24°32' E 089°14'1 0.8 1018.5 20.3
2017-Aug-09 21:00S 24°32' E 089°13'1 0.1 1019.2 20.3
2017-Aug-09 16:00S 24°33' E 089°13'1 0.5 1022.9 20.3
2017-Aug-09 15:00S 24°33' E 089°13'0 0.0 1022.9 20.3
2017-Aug-09 14:00S 24°33' E 089°13'1 0.8 1022.9 20.3
2017-Aug-09 13:00S 24°32' E 089°13'0 0.0 1022.5 20.4
2017-Aug-09 12:00S 24°32' E 089°13'1 0.8 1022.4 20.4
2017-Aug-09 11:00S 24°33' E 089°13'3 1.4 1022.3 20.4
2017-Aug-09 09:00S 24°32' E 089°16'0 0.0 1022.6 20.4
2017-Aug-09 08:00S 24°32' E 089°16'0 0.0 1023.2 20.4
2017-Aug-09 04:00S 24°32' E 089°16'1 1.3 1025.6 20.3
2017-Aug-09 03:00S 24°34' E 089°16'1 0.5 1025.6 20.3
2017-Aug-09 02:00S 24°34' E 089°16'0 0.0 1025.5 20.2
2017-Aug-09 01:00S 24°34' E 089°16'1 0.6 1024.9 20.2
2017-Aug-09 00:00S 24°34' E 089°16'0 0.0 1024.2 20.2
2017-Aug-08 23:00S 24°34' E 089°16'1 0.5 1023.8 20.2
2017-Aug-08 21:00S 24°34' E 089°14'0 0.0 1024.5 20.3
2017-Aug-08 17:00S 24°34' E 089°14'1 0.6 1026.2 20.4
2017-Aug-08 16:00S 24°34' E 089°14'0 0.0 1026.2 20.4
2017-Aug-08 15:00S 24°34' E 089°14'1 0.7 1026.3 20.4
2017-Aug-08 13:00S 24°35' E 089°14'0 0.0 1026.0 20.3
2017-Aug-08 12:00S 24°35' E 089°14'2 1.6 1025.5 20.3
2017-Aug-08 11:00S 24°34' E 089°15'2 0.8 1025.1 20.4
2017-Aug-08 09:00S 24°35' E 089°14'0 0.0 1024.4 20.4
2017-Aug-08 08:00S 24°35' E 089°14'0 0.0 1024.3 20.4
2017-Aug-08 04:00S 24°35' E 089°14'1 0.5 1025.7 20.3
2017-Aug-08 03:00S 24°35' E 089°14'1 0.5 1025.6 20.3
2017-Aug-08 02:00S 24°35' E 089°14'1 1.2 1025.3 20.4
2017-Aug-08 01:00S 24°35' E 089°15'2 1.7 1024.3 20.4
2017-Aug-08 00:00S 24°35' E 089°17'0 0.0 1023.7 20.4
2017-Aug-07 23:00S 24°35' E 089°17'0 0.0 1023.7 20.4
2017-Aug-07 21:00S 24°35' E 089°17'1 0.8 1023.5 20.4
2017-Aug-07 20:00S 24°35' E 089°16'1 0.1 1023.3 20.5
2017-Aug-07 16:00S 24°35' E 089°16'0 0.0 1023.2 20.5
2017-Aug-07 15:00S 24°35' E 089°16'   1022.9 20.5

Dump ship's entire track history